createdAt,value
2018-07-04T00:01:48.977Z,3.00
2018-07-04T00:04:22.456Z,2.33
2018-07-04T00:06:55.622Z,2.47
2018-07-04T00:09:29.147Z,3.53
2018-07-04T00:12:02.568Z,2.83
2018-07-04T00:14:36.494Z,2.97
2018-07-04T00:17:09.804Z,2.47
2018-07-04T00:19:43.200Z,3.10
2018-07-04T00:22:16.903Z,2.97
2018-07-04T00:24:50.299Z,2.47
2018-07-04T00:27:23.785Z,2.50
2018-07-04T00:30:05.125Z,2.80
2018-07-04T00:32:38.293Z,2.87
2018-07-04T00:35:11.572Z,2.60
2018-07-04T00:37:44.973Z,2.70
2018-07-04T00:40:19.718Z,2.83
2018-07-04T00:42:53.048Z,2.70
2018-07-04T00:45:26.442Z,2.43
2018-07-04T00:47:59.832Z,2.50
2018-07-04T00:50:33.056Z,2.63
2018-07-04T00:53:06.586Z,2.93
2018-07-04T00:55:40.056Z,2.87
2018-07-04T00:58:13.695Z,3.00
2018-07-04T01:00:47.100Z,2.17
2018-07-04T01:03:20.356Z,2.73
2018-07-04T01:05:53.769Z,2.90
2018-07-04T01:08:27.286Z,2.70
2018-07-04T01:11:00.696Z,2.23
2018-07-04T01:13:34.116Z,2.40
2018-07-04T01:16:08.339Z,2.27
2018-07-04T01:18:42.041Z,3.00
2018-07-04T01:21:15.866Z,3.17
2018-07-04T01:23:49.206Z,2.73
2018-07-04T01:26:23.143Z,2.37
2018-07-04T01:28:56.315Z,2.50
2018-07-04T01:31:29.603Z,2.47
2018-07-04T01:34:02.965Z,3.40
2018-07-04T01:36:36.128Z,2.57
2018-07-04T01:39:09.446Z,2.53
2018-07-04T01:41:42.705Z,2.63
2018-07-04T01:44:16.132Z,2.60
2018-07-04T01:46:49.487Z,2.57
2018-07-04T01:49:22.812Z,2.63
2018-07-04T01:51:56.564Z,2.50
2018-07-04T01:54:29.944Z,2.20
2018-07-04T01:57:03.268Z,2.77
2018-07-04T01:59:36.628Z,2.60
2018-07-04T02:02:09.928Z,2.60
2018-07-04T02:04:43.249Z,2.53
2018-07-04T02:07:16.402Z,2.03
2018-07-04T02:09:49.700Z,2.40
2018-07-04T02:12:23.096Z,3.00
2018-07-04T02:14:56.552Z,2.20
2018-07-04T02:17:29.928Z,2.30
2018-07-04T02:20:03.553Z,2.47
2018-07-04T02:22:36.884Z,2.13
2018-07-04T02:25:10.166Z,2.03
2018-07-04T02:27:43.299Z,2.30
2018-07-04T02:30:16.558Z,2.70
2018-07-04T02:32:49.765Z,2.17
2018-07-04T02:35:23.154Z,2.40
2018-07-04T02:37:56.556Z,2.40
2018-07-04T02:40:29.626Z,2.70
2018-07-04T02:43:03.106Z,2.53
2018-07-04T02:45:36.656Z,2.13
2018-07-04T02:48:09.901Z,2.70
2018-07-04T02:50:43.321Z,2.50
2018-07-04T02:53:16.408Z,2.50
2018-07-04T02:55:49.534Z,2.50
2018-07-04T02:58:22.912Z,2.13
2018-07-04T03:00:56.390Z,2.70
2018-07-04T03:03:29.582Z,2.67
2018-07-04T03:06:03.429Z,2.67
2018-07-04T03:08:36.530Z,2.47
2018-07-04T03:11:09.818Z,2.93
2018-07-04T03:13:43.113Z,2.20
2018-07-04T03:16:18.412Z,2.20
2018-07-04T03:18:51.740Z,2.43
2018-07-04T03:21:25.105Z,2.63
2018-07-04T03:23:58.312Z,2.17
2018-07-04T03:26:31.539Z,2.03
2018-07-04T03:29:04.948Z,2.83
2018-07-04T03:31:38.292Z,2.50
2018-07-04T03:34:11.673Z,2.10
2018-07-04T03:36:44.816Z,2.47
2018-07-04T03:39:18.080Z,2.40
2018-07-04T03:41:51.284Z,2.20
2018-07-04T03:44:24.640Z,2.77
2018-07-04T03:46:57.881Z,2.40
2018-07-04T03:49:31.073Z,2.30
2018-07-04T03:52:04.144Z,2.57
2018-07-04T03:54:37.557Z,2.60
2018-07-04T03:57:10.725Z,2.50
2018-07-04T03:59:44.236Z,2.60
2018-07-04T04:02:17.432Z,2.40
2018-07-04T04:04:50.750Z,2.53
2018-07-04T04:07:24.053Z,2.60
2018-07-04T04:09:57.256Z,2.30
2018-07-04T04:12:30.492Z,2.57
2018-07-04T04:15:04.008Z,2.60
2018-07-04T04:17:37.188Z,2.47
2018-07-04T04:20:10.590Z,2.72
2018-07-04T04:22:43.992Z,2.87
2018-07-04T04:25:17.245Z,2.60
2018-07-04T04:27:50.531Z,2.70
2018-07-04T04:30:23.768Z,2.75
2018-07-04T04:32:56.868Z,2.60
2018-07-04T04:35:30.674Z,3.00
2018-07-04T04:38:03.891Z,3.10
2018-07-04T04:40:37.290Z,3.50
2018-07-04T04:43:10.585Z,2.90
2018-07-04T04:45:43.767Z,3.12
2018-07-04T04:48:16.834Z,3.50
2018-07-04T04:50:50.012Z,3.52
2018-07-04T04:53:23.324Z,3.37
2018-07-04T04:55:56.652Z,3.40
2018-07-04T04:58:29.937Z,3.60
2018-07-04T05:01:03.672Z,3.72
2018-07-04T05:03:36.838Z,3.33
2018-07-04T05:06:10.112Z,3.27
2018-07-04T05:08:43.341Z,3.50
2018-07-04T05:11:16.544Z,3.67
2018-07-04T05:13:49.701Z,3.55
2018-07-04T05:16:23.099Z,3.37
2018-07-04T05:18:56.516Z,3.45
2018-07-04T05:21:29.802Z,2.75
2018-07-04T05:24:03.142Z,3.05
2018-07-04T05:26:36.437Z,3.70
2018-07-04T05:29:09.745Z,3.60
2018-07-04T05:31:43.176Z,3.30
2018-07-04T05:34:16.428Z,3.90
2018-07-04T05:36:49.971Z,3.22
2018-07-04T05:39:23.628Z,3.47
2018-07-04T05:41:57.205Z,3.50
2018-07-04T05:44:30.519Z,3.33
2018-07-04T05:47:04.205Z,3.27
2018-07-04T05:49:38.169Z,3.55
2018-07-04T05:52:11.761Z,3.50
2018-07-04T05:54:44.780Z,3.20
2018-07-04T05:57:17.960Z,3.30
2018-07-04T05:59:51.142Z,3.10
2018-07-04T06:02:25.012Z,3.20
2018-07-04T06:04:59.114Z,3.25
2018-07-04T06:07:33.122Z,3.08
2018-07-04T06:10:07.114Z,3.00
2018-07-04T06:12:40.530Z,3.30
2018-07-04T06:15:13.845Z,3.22
2018-07-04T06:17:47.202Z,3.33
2018-07-04T06:20:21.350Z,2.92
2018-07-04T06:22:54.779Z,3.50
2018-07-04T06:25:27.963Z,3.15
2018-07-04T06:28:01.215Z,3.02
2018-07-04T06:30:34.521Z,3.27
2018-07-04T06:33:07.937Z,3.10
2018-07-04T06:35:42.196Z,2.83
2018-07-04T06:38:09.194Z,2.72
2018-07-04T06:40:36.444Z,2.90
2018-07-04T06:43:04.213Z,2.92
2018-07-04T06:45:31.925Z,2.90
2018-07-04T06:47:59.156Z,2.85
2018-07-04T06:50:26.160Z,2.92
2018-07-04T06:52:53.335Z,3.02
2018-07-04T06:55:20.762Z,2.70
2018-07-04T06:57:47.797Z,2.40
2018-07-04T07:00:14.778Z,2.05
2018-07-04T07:02:41.824Z,2.55
2018-07-04T07:05:15.948Z,2.40
2018-07-04T07:07:49.265Z,2.42
2018-07-04T07:10:22.414Z,2.17
2018-07-04T07:12:55.537Z,2.60
2018-07-04T07:15:29.010Z,2.10
2018-07-04T07:18:02.534Z,1.90
2018-07-04T07:20:35.812Z,2.35
2018-07-04T07:23:09.235Z,1.87
2018-07-04T07:25:43.052Z,2.10
2018-07-04T07:28:16.302Z,1.98
2018-07-04T07:30:50.395Z,2.20
2018-07-04T07:33:23.824Z,2.27
2018-07-04T07:35:56.886Z,2.15
2018-07-04T07:38:30.112Z,1.90
2018-07-04T07:41:03.285Z,1.82
2018-07-04T07:43:36.555Z,2.05
2018-07-04T07:46:09.768Z,1.77
2018-07-04T07:48:43.166Z,2.00
2018-07-04T07:51:16.757Z,2.00
2018-07-04T07:53:50.012Z,1.70
2018-07-04T07:56:23.321Z,1.90
2018-07-04T07:58:56.681Z,1.60
2018-07-04T08:01:30.072Z,2.00
2018-07-04T08:04:03.440Z,1.70
2018-07-04T08:06:36.761Z,1.95
2018-07-04T08:09:10.139Z,1.90
2018-07-04T08:11:43.458Z,2.00
2018-07-04T08:14:17.032Z,1.87
2018-07-04T08:16:51.111Z,1.92
2018-07-04T08:19:24.461Z,1.70
2018-07-04T08:21:57.871Z,1.90
2018-07-04T08:24:31.059Z,1.65
2018-07-04T08:27:04.437Z,1.98
2018-07-04T08:29:37.802Z,1.90
2018-07-04T08:32:11.041Z,1.70
2018-07-04T08:34:44.824Z,1.70
2018-07-04T08:37:18.571Z,1.72
2018-07-04T08:39:51.827Z,2.02
2018-07-04T08:42:24.926Z,2.17
2018-07-04T08:44:58.182Z,1.72
2018-07-04T08:47:31.291Z,1.92
2018-07-04T08:50:04.669Z,1.85
2018-07-04T08:52:38.044Z,1.90
2018-07-04T08:55:11.098Z,2.00
2018-07-04T08:57:44.488Z,2.35
2018-07-04T09:00:17.784Z,1.80
2018-07-04T09:02:51.105Z,1.98
2018-07-04T09:05:24.313Z,1.90
2018-07-04T09:07:57.796Z,2.20
2018-07-04T09:10:31.127Z,1.82
2018-07-04T09:13:04.321Z,1.85
2018-07-04T09:15:37.677Z,2.27
2018-07-04T09:18:11.713Z,2.30
2018-07-04T09:20:44.936Z,1.85
2018-07-04T09:23:18.276Z,2.05
2018-07-04T09:25:52.230Z,2.22
2018-07-04T09:28:25.609Z,2.20
2018-07-04T09:30:58.676Z,2.00
2018-07-04T09:33:31.996Z,2.17
2018-07-04T09:36:05.495Z,1.80
2018-07-04T09:38:39.484Z,2.08
2018-07-04T09:41:12.663Z,2.02
2018-07-04T09:43:46.194Z,2.00
2018-07-04T09:46:19.573Z,2.05
2018-07-04T09:48:52.996Z,2.02
2018-07-04T09:51:26.388Z,1.90
2018-07-04T09:53:59.784Z,2.22
2018-07-04T09:56:33.632Z,2.27
2018-07-04T09:59:06.806Z,2.10
2018-07-04T10:01:40.418Z,2.30
2018-07-04T10:04:13.648Z,2.33
2018-07-04T10:06:46.786Z,2.00
2018-07-04T10:09:20.995Z,1.98
2018-07-04T10:11:54.288Z,2.08
2018-07-04T10:14:27.642Z,2.00
2018-07-04T10:17:01.075Z,2.10
2018-07-04T10:19:34.450Z,2.00
2018-07-04T10:22:07.784Z,1.90
2018-07-04T10:24:41.372Z,2.12
2018-07-04T10:27:14.771Z,1.87
2018-07-04T10:29:47.840Z,1.80
2018-07-04T10:32:21.409Z,2.00
2018-07-04T10:34:54.558Z,1.98
2018-07-04T10:37:27.993Z,1.70
2018-07-04T10:40:01.695Z,1.80
2018-07-04T10:42:35.341Z,1.67
2018-07-04T10:45:08.423Z,2.00
2018-07-04T10:47:41.827Z,2.15
2018-07-04T10:50:15.280Z,2.20
2018-07-04T10:52:48.517Z,1.80
2018-07-04T10:55:21.854Z,1.80
2018-07-04T10:57:55.108Z,1.82
2018-07-04T11:00:28.516Z,1.95
2018-07-04T11:03:01.722Z,1.90
2018-07-04T11:05:35.119Z,2.22
2018-07-04T11:08:08.461Z,1.77
2018-07-04T11:10:41.772Z,2.62
2018-07-04T11:13:15.108Z,2.15
2018-07-04T11:15:48.324Z,2.08
2018-07-04T11:18:21.696Z,2.00
2018-07-04T11:20:55.168Z,1.82
2018-07-04T11:23:28.385Z,1.82
2018-07-04T11:26:01.975Z,1.98
2018-07-04T11:28:35.089Z,1.85
2018-07-04T11:31:08.282Z,1.90
2018-07-04T11:33:41.368Z,1.80
2018-07-04T11:36:14.737Z,2.60
2018-07-04T11:38:47.962Z,2.08
2018-07-04T11:41:21.273Z,1.70
2018-07-04T11:43:54.726Z,1.70
2018-07-04T11:46:21.912Z,1.82
2018-07-04T11:48:49.468Z,1.90
2018-07-04T11:51:16.510Z,2.37
2018-07-04T11:53:43.633Z,2.22
2018-07-04T11:56:10.686Z,2.20
2018-07-04T11:58:37.830Z,1.98
2018-07-04T12:01:05.600Z,1.85
2018-07-04T12:03:33.634Z,2.20
2018-07-04T12:06:06.904Z,1.72
2018-07-04T12:08:33.904Z,2.00
2018-07-04T12:11:00.930Z,2.10
2018-07-04T12:13:28.618Z,1.95
2018-07-04T12:15:55.651Z,19.37
2018-07-04T12:18:22.738Z,10.68
2018-07-04T12:20:49.815Z,3.05
2018-07-04T12:23:17.249Z,2.50
2018-07-04T12:25:44.995Z,1.92
2018-07-04T12:28:12.048Z,2.27
2018-07-04T12:30:39.092Z,2.00
2018-07-04T12:33:06.954Z,2.17
2018-07-04T12:35:34.045Z,2.00
2018-07-04T12:38:01.074Z,1.98
2018-07-04T12:40:28.280Z,1.80
2018-07-04T12:42:55.284Z,2.25
2018-07-04T12:45:22.490Z,2.00
2018-07-04T12:47:49.886Z,2.15
2018-07-04T12:50:22.988Z,2.00
2018-07-04T12:52:50.081Z,2.12
2018-07-04T12:55:23.498Z,2.17
2018-07-04T12:57:56.954Z,1.90
2018-07-04T13:00:30.225Z,2.27
2018-07-04T13:03:03.430Z,1.90
2018-07-04T13:05:37.545Z,2.40
2018-07-04T13:08:11.587Z,2.10
2018-07-04T13:10:44.786Z,2.12
2018-07-04T13:13:18.300Z,2.30
2018-07-04T13:15:51.470Z,2.55
2018-07-04T13:18:24.628Z,2.02
2018-07-04T13:20:57.980Z,2.37
2018-07-04T13:23:32.039Z,2.10
2018-07-04T13:26:05.440Z,2.00
2018-07-04T13:28:38.557Z,2.20
2018-07-04T13:31:11.718Z,1.90
2018-07-04T13:33:45.136Z,1.90
2018-07-04T13:36:18.446Z,2.30
2018-07-04T13:38:51.643Z,2.25
2018-07-04T13:41:24.795Z,2.20
2018-07-04T13:43:58.071Z,2.10
2018-07-04T13:46:31.494Z,2.08
2018-07-04T13:49:04.903Z,2.00
2018-07-04T13:51:38.048Z,2.10
2018-07-04T13:54:11.260Z,2.62
2018-07-04T13:56:44.340Z,2.00
2018-07-04T13:59:17.424Z,2.42
2018-07-04T14:01:50.689Z,2.22
2018-07-04T14:04:24.142Z,2.20
2018-07-04T14:06:57.510Z,2.52
2018-07-04T14:09:30.945Z,2.62
2018-07-04T14:12:03.977Z,2.67
2018-07-04T14:14:37.181Z,2.80
2018-07-04T14:17:10.385Z,2.83
2018-07-04T14:19:43.544Z,2.25
2018-07-04T14:22:16.994Z,2.70
2018-07-04T14:24:50.284Z,2.42
2018-07-04T14:27:23.428Z,2.58
2018-07-04T14:29:56.782Z,2.90
2018-07-04T14:32:30.514Z,2.42
2018-07-04T14:35:03.900Z,2.80
2018-07-04T14:37:37.957Z,3.00
2018-07-04T14:40:10.985Z,3.55
2018-07-04T14:42:44.245Z,2.85
2018-07-04T14:45:17.704Z,2.90
2018-07-04T14:47:50.943Z,2.72
2018-07-04T14:50:24.132Z,2.85
2018-07-04T14:52:57.178Z,2.95
2018-07-04T14:55:30.644Z,2.87
2018-07-04T14:58:03.868Z,3.25
2018-07-04T15:00:37.140Z,3.10
2018-07-04T15:03:10.357Z,2.77
2018-07-04T15:05:43.604Z,2.70
2018-07-04T15:11:03.033Z,2.60
2018-07-04T15:13:36.668Z,2.77
2018-07-04T15:16:09.838Z,3.12
2018-07-04T15:18:43.350Z,2.65
2018-07-04T15:21:16.455Z,2.85
2018-07-04T15:23:49.606Z,4.00
2018-07-04T15:26:23.209Z,2.62
2018-07-04T15:28:56.377Z,2.50
2018-07-04T15:31:29.919Z,2.60
2018-07-04T15:34:03.205Z,2.85
2018-07-04T15:36:36.389Z,2.77
2018-07-04T15:39:09.772Z,2.62
2018-07-04T15:41:42.985Z,2.58
2018-07-04T15:44:16.264Z,2.92
2018-07-04T15:46:49.683Z,3.08
2018-07-04T15:49:23.514Z,3.02
2018-07-04T15:51:56.655Z,2.85
2018-07-04T15:54:29.870Z,2.87
2018-07-04T15:57:03.092Z,2.98
2018-07-04T15:59:36.353Z,3.10
2018-07-04T16:02:09.765Z,2.85
2018-07-04T16:04:42.828Z,3.00
2018-07-04T16:07:16.276Z,3.00
2018-07-04T16:09:49.428Z,2.67
2018-07-04T16:12:22.837Z,3.05
2018-07-04T16:14:55.953Z,2.98
2018-07-04T16:17:29.380Z,2.92
2018-07-04T16:20:03.070Z,3.50
2018-07-04T16:22:36.344Z,3.20
2018-07-04T16:25:09.774Z,3.00
2018-07-04T16:27:43.087Z,3.15
2018-07-04T16:30:16.593Z,3.12
2018-07-04T16:32:49.788Z,3.62
2018-07-04T16:35:22.933Z,3.20
2018-07-04T16:37:56.922Z,3.22
2018-07-04T16:40:30.133Z,3.08
2018-07-04T16:43:03.200Z,2.80
2018-07-04T16:45:36.306Z,2.70
2018-07-04T16:48:10.113Z,2.92
2018-07-04T16:50:43.456Z,2.50
2018-07-04T16:53:16.804Z,2.90
2018-07-04T16:55:50.144Z,2.95
2018-07-04T16:58:23.519Z,2.90
2018-07-04T17:00:57.024Z,2.87
2018-07-04T17:03:30.159Z,3.15
2018-07-04T17:06:03.732Z,2.90
2018-07-04T17:08:36.878Z,2.55
2018-07-04T17:11:10.132Z,2.70
2018-07-04T17:13:43.497Z,2.67
2018-07-04T17:16:16.697Z,2.50
2018-07-04T17:18:50.138Z,2.90
2018-07-04T17:21:23.368Z,2.80
2018-07-04T17:23:56.892Z,2.98
2018-07-04T17:26:30.337Z,2.40
2018-07-04T17:29:03.432Z,2.92
2018-07-04T17:31:36.644Z,2.60
2018-07-04T17:34:09.930Z,2.58
2018-07-04T17:36:43.113Z,2.85
2018-07-04T17:39:16.571Z,2.98
2018-07-04T17:41:50.031Z,4.00
2018-07-04T17:44:23.356Z,4.08
2018-07-04T17:46:56.624Z,4.42
2018-07-04T17:49:29.917Z,3.40
2018-07-04T17:52:03.323Z,2.60
2018-07-04T17:54:36.418Z,2.58
2018-07-04T17:57:10.432Z,2.50
2018-07-04T17:59:43.616Z,2.30
2018-07-04T18:02:16.909Z,2.20
2018-07-04T18:04:50.776Z,2.58
2018-07-04T18:07:24.024Z,2.87
2018-07-04T18:09:57.168Z,2.42
2018-07-04T18:12:30.467Z,2.47
2018-07-04T18:15:04.350Z,2.20
2018-07-04T18:17:37.702Z,2.42
2018-07-04T18:20:11.224Z,2.22
2018-07-04T18:22:45.071Z,2.47
2018-07-04T18:25:19.220Z,2.87
2018-07-04T18:27:52.548Z,2.27
2018-07-04T18:30:25.779Z,2.35
2018-07-04T18:32:59.084Z,2.50
2018-07-04T18:35:32.913Z,2.67
2018-07-04T18:38:06.198Z,2.50
2018-07-04T18:40:39.550Z,2.70
2018-07-04T18:43:14.166Z,2.58
2018-07-04T18:45:47.546Z,2.35
2018-07-04T18:48:21.388Z,2.70
2018-07-04T18:50:55.252Z,2.90
2018-07-04T18:53:28.442Z,2.47
2018-07-04T18:56:01.968Z,2.30
2018-07-04T18:58:35.128Z,2.72
2018-07-04T19:01:08.467Z,2.22
2018-07-04T19:03:41.937Z,3.52
2018-07-04T19:06:15.288Z,2.87
2018-07-04T19:08:48.409Z,2.72
2018-07-04T19:11:21.796Z,2.75
2018-07-04T19:13:55.662Z,2.80
2018-07-04T19:16:29.173Z,3.08
2018-07-04T19:19:02.478Z,2.72
2018-07-04T19:21:35.631Z,2.80
2018-07-04T19:24:08.845Z,2.65
2018-07-04T19:26:43.556Z,2.77
2018-07-04T19:29:26.324Z,2.60
2018-07-04T19:31:59.835Z,2.70
2018-07-04T19:34:32.988Z,3.17
2018-07-04T19:37:06.400Z,3.20
2018-07-04T19:39:39.836Z,2.70
2018-07-04T19:42:14.742Z,3.40
2018-07-04T19:44:48.553Z,3.57
2018-07-04T19:47:21.653Z,3.40
2018-07-04T19:49:54.945Z,3.50
2018-07-04T19:52:28.558Z,3.70
2018-07-04T19:55:02.230Z,5.00
2018-07-04T19:57:35.428Z,4.20
2018-07-04T20:00:08.636Z,4.07
2018-07-04T20:02:41.929Z,3.73
2018-07-04T20:05:15.396Z,3.70
2018-07-04T20:07:48.797Z,3.27
2018-07-04T20:10:22.964Z,3.63
2018-07-04T20:12:56.204Z,3.53
2018-07-04T20:15:29.609Z,3.33
2018-07-04T20:18:02.716Z,3.63
2018-07-04T20:20:36.136Z,3.13
2018-07-04T20:23:09.513Z,3.20
2018-07-04T20:25:42.816Z,3.47
2018-07-04T20:28:16.235Z,3.33
2018-07-04T20:30:49.406Z,3.43
2018-07-04T20:33:22.623Z,3.37
2018-07-04T20:35:55.780Z,3.50
2018-07-04T20:38:29.207Z,4.47
2018-07-04T20:41:02.573Z,3.57
2018-07-04T20:43:36.059Z,3.03
2018-07-04T20:46:12.580Z,3.90
2018-07-04T20:48:47.567Z,4.13
2018-07-04T20:51:26.463Z,5.20
2018-07-04T20:53:59.845Z,3.80
2018-07-04T20:56:33.202Z,3.80
2018-07-04T20:59:11.144Z,3.40
2018-07-04T21:01:45.042Z,4.13
2018-07-04T21:04:21.328Z,3.90
2018-07-04T21:06:54.754Z,3.90
2018-07-04T21:09:28.728Z,3.37
2018-07-04T21:12:02.228Z,3.30
2018-07-04T21:14:35.445Z,3.77
2018-07-04T21:17:08.572Z,3.50
2018-07-04T21:19:41.869Z,3.77
2018-07-04T21:22:14.984Z,3.67
2018-07-04T21:24:48.325Z,4.17
2018-07-04T21:27:23.028Z,3.93
2018-07-04T21:29:56.391Z,3.73
2018-07-04T21:32:29.714Z,4.97
2018-07-04T21:35:08.238Z,4.07
2018-07-04T21:37:41.592Z,4.33
2018-07-04T21:40:14.794Z,4.23
2018-07-04T21:42:47.900Z,4.57
2018-07-04T21:45:25.532Z,4.87
2018-07-04T21:47:58.774Z,4.60
2018-07-04T21:50:31.874Z,4.83
2018-07-04T21:53:12.208Z,4.30
2018-07-04T21:55:45.328Z,4.77
2018-07-04T21:58:18.763Z,5.33
2018-07-04T22:00:52.112Z,5.60
2018-07-04T22:03:26.278Z,4.20
2018-07-04T22:05:59.448Z,4.63
2018-07-04T22:08:32.745Z,4.57
2018-07-04T22:11:06.773Z,5.23
2018-07-04T22:13:40.268Z,5.23
2018-07-04T22:16:13.419Z,4.50
2018-07-04T22:18:46.642Z,4.87
2018-07-04T22:21:20.157Z,4.63
2018-07-04T22:23:54.270Z,5.27
2018-07-04T22:26:30.989Z,4.97
2018-07-04T22:29:06.792Z,4.97
2018-07-04T22:31:42.883Z,5.17
2018-07-04T22:34:19.319Z,4.93
2018-07-04T22:36:53.505Z,4.97
2018-07-04T22:39:28.919Z,6.20
2018-07-04T22:42:02.153Z,4.57
2018-07-04T22:44:37.515Z,5.67
2018-07-04T22:47:14.234Z,5.17
2018-07-04T22:49:51.040Z,6.03
2018-07-04T22:52:27.916Z,5.40
2018-07-04T22:55:02.872Z,5.03
2018-07-04T22:57:37.204Z,4.87
2018-07-04T23:00:12.174Z,4.10
2018-07-04T23:02:45.816Z,4.63
2018-07-04T23:05:20.828Z,4.90
2018-07-04T23:07:56.268Z,4.53
2018-07-04T23:10:30.610Z,5.03
2018-07-04T23:13:03.792Z,4.80
2018-07-04T23:22:28.640Z,5.13
2018-07-04T23:25:02.041Z,5.10
2018-07-04T23:27:35.164Z,5.40
2018-07-04T23:30:08.313Z,5.33
2018-07-04T23:32:41.624Z,5.07
2018-07-04T23:35:14.623Z,5.60
2018-07-04T23:37:47.718Z,5.57
2018-07-04T23:40:21.096Z,5.50
2018-07-04T23:42:54.410Z,6.37
2018-07-04T23:45:27.496Z,6.23
2018-07-04T23:48:00.594Z,5.90
2018-07-04T23:50:34.305Z,6.00
2018-07-04T23:53:07.565Z,6.13
2018-07-04T23:55:40.793Z,5.90
2018-07-04T23:58:14.082Z,6.20
